sensor_id;sensor_type;location;lat;lon;timestamp;temperature;humidity
11009;DHT22;5557;51.670;7.788;2023-08-17T00:00:21;16.60;99.90
11009;DHT22;5557;51.670;7.788;2023-08-17T00:02:48;16.50;99.90
11009;DHT22;5557;51.670;7.788;2023-08-17T00:05:15;16.50;99.90
11009;DHT22;5557;51.670;7.788;2023-08-17T00:07:42;16.50;99.90
11009;DHT22;5557;51.670;7.788;2023-08-17T00:10:09;16.40;99.90
11009;DHT22;5557;51.670;7.788;2023-08-17T00:12:37;16.40;99.90
11009;DHT22;5557;51.670;7.788;2023-08-17T00:15:04;16.40;99.90
11009;DHT22;5557;51.670;7.788;2023-08-17T00:17:33;16.40;99.90
11009;DHT22;5557;51.670;7.788;2023-08-17T00:20:04;16.30;99.90
11009;DHT22;5557;51.670;7.788;2023-08-17T00:22:32;16.30;99.90
11009;DHT22;5557;51.670;7.788;2023-08-17T00:24:59;16.20;99.90
11009;DHT22;5557;51.670;7.788;2023-08-17T00:27:27;16.20;99.90
11009;DHT22;5557;51.670;7.788;2023-08-17T00:30:21;16.10;99.90
11009;DHT22;5557;51.670;7.788;2023-08-17T00:32:48;16.10;99.90
11009;DHT22;5557;51.670;7.788;2023-08-17T00:35:15;16.10;99.90
11009;DHT22;5557;51.670;7.788;2023-08-17T00:37:42;16.10;99.90
11009;DHT22;5557;51.670;7.788;2023-08-17T00:40:14;16.10;99.90
11009;DHT22;5557;51.670;7.788;2023-08-17T00:46:06;16.10;99.90
11009;DHT22;5557;51.670;7.788;2023-08-17T00:48:52;16.10;99.90
11009;DHT22;5557;51.670;7.788;2023-08-17T00:54:43;16.20;99.90
11009;DHT22;5557;51.670;7.788;2023-08-17T00:57:20;16.20;99.90
11009;DHT22;5557;51.670;7.788;2023-08-17T00:59:52;16.20;99.90
11009;DHT22;5557;51.670;7.788;2023-08-17T01:02:31;16.20;99.90
11009;DHT22;5557;51.670;7.788;2023-08-17T01:05:10;16.20;99.90
11009;DHT22;5557;51.670;7.788;2023-08-17T01:07:37;16.20;99.90
11009;DHT22;5557;51.670;7.788;2023-08-17T01:10:08;16.20;99.90
11009;DHT22;5557;51.670;7.788;2023-08-17T01:13:03;16.20;99.90
11009;DHT22;5557;51.670;7.788;2023-08-17T01:15:40;16.10;99.90
11009;DHT22;5557;51.670;7.788;2023-08-17T01:21:09;16.10;99.90
11009;DHT22;5557;51.670;7.788;2023-08-17T01:23:39;16.10;99.90
11009;DHT22;5557;51.670;7.788;2023-08-17T01:26:13;16.10;99.90
11009;DHT22;5557;51.670;7.788;2023-08-17T01:28:46;16.20;99.90
11009;DHT22;5557;51.670;7.788;2023-08-17T01:31:25;16.20;99.90
11009;DHT22;5557;51.670;7.788;2023-08-17T01:33:58;16.20;99.90
11009;DHT22;5557;51.670;7.788;2023-08-17T01:36:31;16.20;99.90
11009;DHT22;5557;51.670;7.788;2023-08-17T01:39:00;16.20;99.90
11009;DHT22;5557;51.670;7.788;2023-08-17T01:41:28;16.10;99.90
11009;DHT22;5557;51.670;7.788;2023-08-17T01:43:57;16.10;99.90
11009;DHT22;5557;51.670;7.788;2023-08-17T01:46:30;16.10;99.90
11009;DHT22;5557;51.670;7.788;2023-08-17T01:48:58;16.10;99.90
11009;DHT22;5557;51.670;7.788;2023-08-17T01:51:27;16.10;99.90
11009;DHT22;5557;51.670;7.788;2023-08-17T01:53:54;16.10;99.90
11009;DHT22;5557;51.670;7.788;2023-08-17T01:56:22;16.00;99.90
11009;DHT22;5557;51.670;7.788;2023-08-17T01:58:49;16.10;99.90
11009;DHT22;5557;51.670;7.788;2023-08-17T02:01:18;16.10;99.90
11009;DHT22;5557;51.670;7.788;2023-08-17T02:03:45;16.10;99.90
11009;DHT22;5557;51.670;7.788;2023-08-17T02:06:14;16.10;99.90
11009;DHT22;5557;51.670;7.788;2023-08-17T02:08:41;16.00;99.90
11009;DHT22;5557;51.670;7.788;2023-08-17T02:11:08;16.00;99.90
11009;DHT22;5557;51.670;7.788;2023-08-17T02:13:37;16.00;99.90
11009;DHT22;5557;51.670;7.788;2023-08-17T02:16:04;15.90;99.90
11009;DHT22;5557;51.670;7.788;2023-08-17T02:18:31;15.90;99.90
11009;DHT22;5557;51.670;7.788;2023-08-17T02:21:01;15.90;99.90
11009;DHT22;5557;51.670;7.788;2023-08-17T02:23:28;15.90;99.90
11009;DHT22;5557;51.670;7.788;2023-08-17T02:25:56;15.90;99.90
11009;DHT22;5557;51.670;7.788;2023-08-17T02:28:26;15.80;99.90
11009;DHT22;5557;51.670;7.788;2023-08-17T02:30:57;15.80;99.90
11009;DHT22;5557;51.670;7.788;2023-08-17T02:33:26;15.80;99.90
11009;DHT22;5557;51.670;7.788;2023-08-17T02:35:53;15.80;99.90
11009;DHT22;5557;51.670;7.788;2023-08-17T02:38:23;15.80;99.90
11009;DHT22;5557;51.670;7.788;2023-08-17T02:40:51;15.80;99.90
11009;DHT22;5557;51.670;7.788;2023-08-17T02:43:18;15.80;99.90
11009;DHT22;5557;51.670;7.788;2023-08-17T02:45:47;15.80;99.90
11009;DHT22;5557;51.670;7.788;2023-08-17T02:48:14;15.80;99.90
11009;DHT22;5557;51.670;7.788;2023-08-17T02:50:42;15.80;99.90
11009;DHT22;5557;51.670;7.788;2023-08-17T02:53:12;15.80;99.90
11009;DHT22;5557;51.670;7.788;2023-08-17T02:55:39;15.80;99.90
11009;DHT22;5557;51.670;7.788;2023-08-17T02:58:06;15.80;99.90
11009;DHT22;5557;51.670;7.788;2023-08-17T03:00:33;15.80;99.90
11009;DHT22;5557;51.670;7.788;2023-08-17T03:03:00;15.80;99.90
11009;DHT22;5557;51.670;7.788;2023-08-17T03:05:27;15.80;99.90
11009;DHT22;5557;51.670;7.788;2023-08-17T03:07:54;15.80;99.90
11009;DHT22;5557;51.670;7.788;2023-08-17T03:10:21;15.80;99.90
11009;DHT22;5557;51.670;7.788;2023-08-17T03:12:48;15.80;99.90
11009;DHT22;5557;51.670;7.788;2023-08-17T03:15:16;15.80;99.90
11009;DHT22;5557;51.670;7.788;2023-08-17T03:17:44;15.80;99.90
11009;DHT22;5557;51.670;7.788;2023-08-17T03:20:11;15.80;99.90
11009;DHT22;5557;51.670;7.788;2023-08-17T03:22:38;15.80;99.90
11009;DHT22;5557;51.670;7.788;2023-08-17T03:25:06;15.80;99.90
11009;DHT22;5557;51.670;7.788;2023-08-17T03:27:33;15.80;99.90
11009;DHT22;5557;51.670;7.788;2023-08-17T03:30:00;15.80;99.90
11009;DHT22;5557;51.670;7.788;2023-08-17T03:32:27;15.80;99.90
11009;DHT22;5557;51.670;7.788;2023-08-17T03:34:54;15.80;99.90
11009;DHT22;5557;51.670;7.788;2023-08-17T03:37:21;15.80;99.90
11009;DHT22;5557;51.670;7.788;2023-08-17T03:39:48;15.80;99.90
11009;DHT22;5557;51.670;7.788;2023-08-17T03:42:15;15.80;99.90
11009;DHT22;5557;51.670;7.788;2023-08-17T03:44:42;15.70;99.90
11009;DHT22;5557;51.670;7.788;2023-08-17T03:47:09;15.80;99.90
11009;DHT22;5557;51.670;7.788;2023-08-17T03:49:36;15.70;99.90
11009;DHT22;5557;51.670;7.788;2023-08-17T03:52:03;15.70;99.90
11009;DHT22;5557;51.670;7.788;2023-08-17T03:54:30;15.70;99.90
11009;DHT22;5557;51.670;7.788;2023-08-17T03:56:57;15.70;99.90
11009;DHT22;5557;51.670;7.788;2023-08-17T03:59:24;15.70;99.90
11009;DHT22;5557;51.670;7.788;2023-08-17T04:01:51;15.70;99.90
11009;DHT22;5557;51.670;7.788;2023-08-17T04:04:19;15.70;99.90
11009;DHT22;5557;51.670;7.788;2023-08-17T04:06:46;15.70;99.90
11009;DHT22;5557;51.670;7.788;2023-08-17T04:09:13;15.70;99.90
11009;DHT22;5557;51.670;7.788;2023-08-17T04:11:40;15.70;99.90
11009;DHT22;5557;51.670;7.788;2023-08-17T04:14:07;15.70;99.90
11009;DHT22;5557;51.670;7.788;2023-08-17T04:16:35;15.70;99.90
11009;DHT22;5557;51.670;7.788;2023-08-17T04:19:03;15.70;99.90
11009;DHT22;5557;51.670;7.788;2023-08-17T04:21:30;15.70;99.90
11009;DHT22;5557;51.670;7.788;2023-08-17T04:23:57;15.70;99.90
11009;DHT22;5557;51.670;7.788;2023-08-17T04:26:24;15.70;99.90
11009;DHT22;5557;51.670;7.788;2023-08-17T04:28:51;15.80;99.90
11009;DHT22;5557;51.670;7.788;2023-08-17T04:31:18;15.80;99.90
11009;DHT22;5557;51.670;7.788;2023-08-17T04:33:45;15.80;99.90
11009;DHT22;5557;51.670;7.788;2023-08-17T04:36:12;15.80;99.90
11009;DHT22;5557;51.670;7.788;2023-08-17T04:38:39;15.80;99.90
11009;DHT22;5557;51.670;7.788;2023-08-17T04:41:06;15.80;99.90
11009;DHT22;5557;51.670;7.788;2023-08-17T04:43:34;15.80;99.90
11009;DHT22;5557;51.670;7.788;2023-08-17T04:46:01;15.90;99.90
11009;DHT22;5557;51.670;7.788;2023-08-17T04:48:28;15.90;99.90
11009;DHT22;5557;51.670;7.788;2023-08-17T04:50:56;15.90;99.90
11009;DHT22;5557;51.670;7.788;2023-08-17T04:53:23;15.90;99.90
11009;DHT22;5557;51.670;7.788;2023-08-17T04:55:50;15.90;99.90
11009;DHT22;5557;51.670;7.788;2023-08-17T04:58:17;15.90;99.90
11009;DHT22;5557;51.670;7.788;2023-08-17T05:00:45;15.90;99.90
11009;DHT22;5557;51.670;7.788;2023-08-17T05:03:12;15.90;99.90
11009;DHT22;5557;51.670;7.788;2023-08-17T05:05:52;15.90;99.90
11009;DHT22;5557;51.670;7.788;2023-08-17T05:08:19;15.90;99.90
11009;DHT22;5557;51.670;7.788;2023-08-17T05:10:49;15.90;99.90
11009;DHT22;5557;51.670;7.788;2023-08-17T05:13:16;15.90;99.90
11009;DHT22;5557;51.670;7.788;2023-08-17T05:15:43;16.00;99.90
11009;DHT22;5557;51.670;7.788;2023-08-17T05:18:10;16.00;99.90
11009;DHT22;5557;51.670;7.788;2023-08-17T05:20:37;16.00;99.90
11009;DHT22;5557;51.670;7.788;2023-08-17T05:23:04;16.00;99.90
11009;DHT22;5557;51.670;7.788;2023-08-17T05:25:31;16.00;99.90
11009;DHT22;5557;51.670;7.788;2023-08-17T05:27:59;16.00;99.90
11009;DHT22;5557;51.670;7.788;2023-08-17T05:30:26;16.00;99.90
11009;DHT22;5557;51.670;7.788;2023-08-17T05:32:53;16.10;99.90
11009;DHT22;5557;51.670;7.788;2023-08-17T05:35:20;16.10;99.90
11009;DHT22;5557;51.670;7.788;2023-08-17T05:37:47;16.20;99.90
11009;DHT22;5557;51.670;7.788;2023-08-17T05:40:14;16.20;99.90
11009;DHT22;5557;51.670;7.788;2023-08-17T05:42:41;16.20;99.90
11009;DHT22;5557;51.670;7.788;2023-08-17T05:45:09;16.30;99.90
11009;DHT22;5557;51.670;7.788;2023-08-17T05:47:36;16.20;99.90
11009;DHT22;5557;51.670;7.788;2023-08-17T05:50:03;16.20;99.90
11009;DHT22;5557;51.670;7.788;2023-08-17T05:52:31;16.20;99.90
11009;DHT22;5557;51.670;7.788;2023-08-17T05:54:59;16.20;99.90
11009;DHT22;5557;51.670;7.788;2023-08-17T05:57:26;16.20;99.90
11009;DHT22;5557;51.670;7.788;2023-08-17T05:59:53;16.20;99.90
11009;DHT22;5557;51.670;7.788;2023-08-17T06:02:20;16.20;99.90
11009;DHT22;5557;51.670;7.788;2023-08-17T06:04:47;16.20;99.90
11009;DHT22;5557;51.670;7.788;2023-08-17T06:07:15;16.30;99.90
11009;DHT22;5557;51.670;7.788;2023-08-17T06:09:42;16.20;99.90
11009;DHT22;5557;51.670;7.788;2023-08-17T06:12:08;16.30;99.90
11009;DHT22;5557;51.670;7.788;2023-08-17T06:14:35;16.30;99.90
11009;DHT22;5557;51.670;7.788;2023-08-17T06:17:03;16.30;99.90
11009;DHT22;5557;51.670;7.788;2023-08-17T06:19:31;16.30;99.90
11009;DHT22;5557;51.670;7.788;2023-08-17T06:21:58;16.40;99.90
11009;DHT22;5557;51.670;7.788;2023-08-17T06:24:28;16.40;99.90
11009;DHT22;5557;51.670;7.788;2023-08-17T06:26:56;16.50;99.90
11009;DHT22;5557;51.670;7.788;2023-08-17T06:29:23;16.60;99.90
11009;DHT22;5557;51.670;7.788;2023-08-17T06:31:51;16.60;99.90
11009;DHT22;5557;51.670;7.788;2023-08-17T06:34:18;16.60;99.90
11009;DHT22;5557;51.670;7.788;2023-08-17T06:36:57;16.60;99.90
11009;DHT22;5557;51.670;7.788;2023-08-17T06:39:24;16.60;99.90
11009;DHT22;5557;51.670;7.788;2023-08-17T06:41:51;16.70;99.90
11009;DHT22;5557;51.670;7.788;2023-08-17T06:44:18;16.70;99.90
11009;DHT22;5557;51.670;7.788;2023-08-17T06:46:45;16.70;99.90
11009;DHT22;5557;51.670;7.788;2023-08-17T06:49:12;16.70;99.90
11009;DHT22;5557;51.670;7.788;2023-08-17T06:51:39;16.70;99.90
11009;DHT22;5557;51.670;7.788;2023-08-17T06:54:08;16.70;99.90
11009;DHT22;5557;51.670;7.788;2023-08-17T06:56:36;16.80;99.90
11009;DHT22;5557;51.670;7.788;2023-08-17T06:59:03;16.80;99.90
11009;DHT22;5557;51.670;7.788;2023-08-17T07:01:30;16.80;99.90
11009;DHT22;5557;51.670;7.788;2023-08-17T07:03:57;16.80;99.90
11009;DHT22;5557;51.670;7.788;2023-08-17T07:06:25;16.80;99.90
11009;DHT22;5557;51.670;7.788;2023-08-17T07:08:52;16.80;99.90
11009;DHT22;5557;51.670;7.788;2023-08-17T07:11:19;16.80;99.90
11009;DHT22;5557;51.670;7.788;2023-08-17T07:13:46;16.90;99.90
11009;DHT22;5557;51.670;7.788;2023-08-17T07:16:13;16.90;99.90
11009;DHT22;5557;51.670;7.788;2023-08-17T07:18:41;17.00;99.90
11009;DHT22;5557;51.670;7.788;2023-08-17T07:21:08;17.00;99.90
11009;DHT22;5557;51.670;7.788;2023-08-17T07:23:35;17.00;99.90
11009;DHT22;5557;51.670;7.788;2023-08-17T07:26:02;17.00;99.90
11009;DHT22;5557;51.670;7.788;2023-08-17T07:28:29;17.00;99.90
11009;DHT22;5557;51.670;7.788;2023-08-17T07:30:56;17.00;99.90
11009;DHT22;5557;51.670;7.788;2023-08-17T07:33:23;17.10;99.90
11009;DHT22;5557;51.670;7.788;2023-08-17T07:35:50;17.10;99.90
11009;DHT22;5557;51.670;7.788;2023-08-17T07:38:18;17.10;99.90
11009;DHT22;5557;51.670;7.788;2023-08-17T07:40:45;17.20;99.90
11009;DHT22;5557;51.670;7.788;2023-08-17T07:43:12;17.20;99.90
11009;DHT22;5557;51.670;7.788;2023-08-17T07:45:40;17.10;99.90
11009;DHT22;5557;51.670;7.788;2023-08-17T07:48:07;17.20;99.90
11009;DHT22;5557;51.670;7.788;2023-08-17T07:50:53;17.20;99.90
11009;DHT22;5557;51.670;7.788;2023-08-17T07:53:35;17.30;99.90
11009;DHT22;5557;51.670;7.788;2023-08-17T07:56:03;17.30;99.90
11009;DHT22;5557;51.670;7.788;2023-08-17T07:58:30;17.30;99.90
11009;DHT22;5557;51.670;7.788;2023-08-17T08:00:57;17.30;99.90
11009;DHT22;5557;51.670;7.788;2023-08-17T08:03:26;17.30;99.90
11009;DHT22;5557;51.670;7.788;2023-08-17T08:05:54;17.30;99.90
11009;DHT22;5557;51.670;7.788;2023-08-17T08:08:21;17.30;99.90
11009;DHT22;5557;51.670;7.788;2023-08-17T08:10:48;17.30;99.90
11009;DHT22;5557;51.670;7.788;2023-08-17T08:13:16;17.50;99.90
11009;DHT22;5557;51.670;7.788;2023-08-17T08:15:43;17.50;99.90
11009;DHT22;5557;51.670;7.788;2023-08-17T08:18:10;17.50;99.90
11009;DHT22;5557;51.670;7.788;2023-08-17T08:20:38;17.60;99.90
11009;DHT22;5557;51.670;7.788;2023-08-17T08:23:05;17.60;99.90
11009;DHT22;5557;51.670;7.788;2023-08-17T08:25:32;17.60;99.90
11009;DHT22;5557;51.670;7.788;2023-08-17T08:27:58;17.70;99.90
11009;DHT22;5557;51.670;7.788;2023-08-17T08:30:26;17.80;99.90
11009;DHT22;5557;51.670;7.788;2023-08-17T08:32:53;17.80;99.90
11009;DHT22;5557;51.670;7.788;2023-08-17T08:35:23;17.90;99.90
11009;DHT22;5557;51.670;7.788;2023-08-17T08:37:51;18.10;99.90
11009;DHT22;5557;51.670;7.788;2023-08-17T08:40:19;18.30;99.90
11009;DHT22;5557;51.670;7.788;2023-08-17T08:42:47;18.30;99.90
11009;DHT22;5557;51.670;7.788;2023-08-17T08:45:15;18.20;99.90
11009;DHT22;5557;51.670;7.788;2023-08-17T08:47:42;18.20;99.90
11009;DHT22;5557;51.670;7.788;2023-08-17T08:50:19;18.10;99.90
11009;DHT22;5557;51.670;7.788;2023-08-17T08:53:00;18.10;99.90
11009;DHT22;5557;51.670;7.788;2023-08-17T08:55:30;18.10;99.90
11009;DHT22;5557;51.670;7.788;2023-08-17T08:58:00;18.00;99.90
11009;DHT22;5557;51.670;7.788;2023-08-17T09:00:30;17.90;99.90
11009;DHT22;5557;51.670;7.788;2023-08-17T09:02:57;17.90;99.90
11009;DHT22;5557;51.670;7.788;2023-08-17T09:05:31;17.90;99.90
11009;DHT22;5557;51.670;7.788;2023-08-17T09:07:59;17.90;99.90
11009;DHT22;5557;51.670;7.788;2023-08-17T09:10:28;18.00;99.90
11009;DHT22;5557;51.670;7.788;2023-08-17T09:12:57;18.10;99.90
11009;DHT22;5557;51.670;7.788;2023-08-17T09:15:24;18.20;99.90
11009;DHT22;5557;51.670;7.788;2023-08-17T09:17:51;18.20;99.90
11009;DHT22;5557;51.670;7.788;2023-08-17T09:20:40;18.30;99.90
11009;DHT22;5557;51.670;7.788;2023-08-17T09:23:17;18.20;99.90
11009;DHT22;5557;51.670;7.788;2023-08-17T09:25:47;18.10;99.90
11009;DHT22;5557;51.670;7.788;2023-08-17T09:28:18;18.10;99.90
11009;DHT22;5557;51.670;7.788;2023-08-17T09:31:04;18.10;99.90
11009;DHT22;5557;51.670;7.788;2023-08-17T09:33:32;18.00;99.90
11009;DHT22;5557;51.670;7.788;2023-08-17T09:35:59;18.10;99.90
11009;DHT22;5557;51.670;7.788;2023-08-17T09:38:27;18.20;99.90
11009;DHT22;5557;51.670;7.788;2023-08-17T09:40:57;18.30;99.90
11009;DHT22;5557;51.670;7.788;2023-08-17T09:43:28;18.30;99.90
11009;DHT22;5557;51.670;7.788;2023-08-17T09:45:57;18.30;99.90
11009;DHT22;5557;51.670;7.788;2023-08-17T09:48:26;18.30;99.90
11009;DHT22;5557;51.670;7.788;2023-08-17T09:50:59;18.30;99.90
11009;DHT22;5557;51.670;7.788;2023-08-17T09:53:28;18.40;99.90
11009;DHT22;5557;51.670;7.788;2023-08-17T09:55:57;18.50;99.90
11009;DHT22;5557;51.670;7.788;2023-08-17T09:58:26;18.60;99.90
11009;DHT22;5557;51.670;7.788;2023-08-17T10:00:58;18.70;99.90
11009;DHT22;5557;51.670;7.788;2023-08-17T10:03:30;18.80;99.90
11009;DHT22;5557;51.670;7.788;2023-08-17T10:06:04;18.70;99.90
11009;DHT22;5557;51.670;7.788;2023-08-17T10:08:33;18.80;99.90
11009;DHT22;5557;51.670;7.788;2023-08-17T10:11:06;18.80;99.90
11009;DHT22;5557;51.670;7.788;2023-08-17T10:13:46;18.90;99.90
11009;DHT22;5557;51.670;7.788;2023-08-17T10:16:28;19.00;99.90
11009;DHT22;5557;51.670;7.788;2023-08-17T10:19:07;19.00;99.90
11009;DHT22;5557;51.670;7.788;2023-08-17T10:22:06;19.10;99.90
11009;DHT22;5557;51.670;7.788;2023-08-17T10:24:35;19.00;99.90
11009;DHT22;5557;51.670;7.788;2023-08-17T10:27:08;19.10;99.90
11009;DHT22;5557;51.670;7.788;2023-08-17T10:29:36;19.20;99.90
11009;DHT22;5557;51.670;7.788;2023-08-17T10:32:07;19.20;99.90
11009;DHT22;5557;51.670;7.788;2023-08-17T10:34:34;19.20;99.90
11009;DHT22;5557;51.670;7.788;2023-08-17T10:37:02;19.20;99.90
11009;DHT22;5557;51.670;7.788;2023-08-17T10:39:30;19.20;99.90
11009;DHT22;5557;51.670;7.788;2023-08-17T10:41:58;19.20;99.90
11009;DHT22;5557;51.670;7.788;2023-08-17T10:44:52;19.30;99.90
11009;DHT22;5557;51.670;7.788;2023-08-17T10:47:24;19.30;99.90
11009;DHT22;5557;51.670;7.788;2023-08-17T10:50:23;19.50;99.90
11009;DHT22;5557;51.670;7.788;2023-08-17T10:52:53;19.40;96.70
11009;DHT22;5557;51.670;7.788;2023-08-17T10:55:37;19.50;98.20
11009;DHT22;5557;51.670;7.788;2023-08-17T10:58:04;19.50;97.80
11009;DHT22;5557;51.670;7.788;2023-08-17T11:00:36;19.50;98.20
11009;DHT22;5557;51.670;7.788;2023-08-17T11:03:08;19.30;99.90
11009;DHT22;5557;51.670;7.788;2023-08-17T11:05:47;19.20;99.90
11009;DHT22;5557;51.670;7.788;2023-08-17T11:08:38;19.20;99.90
11009;DHT22;5557;51.670;7.788;2023-08-17T11:11:15;19.20;99.90
11009;DHT22;5557;51.670;7.788;2023-08-17T11:13:44;19.40;99.90
11009;DHT22;5557;51.670;7.788;2023-08-17T11:16:14;19.50;99.20
11009;DHT22;5557;51.670;7.788;2023-08-17T11:18:45;19.50;97.20
11009;DHT22;5557;51.670;7.788;2023-08-17T11:21:12;19.60;97.80
11009;DHT22;5557;51.670;7.788;2023-08-17T11:23:44;19.70;96.20
11009;DHT22;5557;51.670;7.788;2023-08-17T11:26:11;19.80;94.90
11009;DHT22;5557;51.670;7.788;2023-08-17T11:28:38;19.90;92.80
11009;DHT22;5557;51.670;7.788;2023-08-17T11:31:10;20.00;93.20
11009;DHT22;5557;51.670;7.788;2023-08-17T11:33:38;20.00;87.20
11009;DHT22;5557;51.670;7.788;2023-08-17T11:36:08;20.00;89.20
11009;DHT22;5557;51.670;7.788;2023-08-17T11:38:40;20.00;91.50
11009;DHT22;5557;51.670;7.788;2023-08-17T11:41:08;19.90;90.60
11009;DHT22;5557;51.670;7.788;2023-08-17T11:43:36;20.00;90.90
11009;DHT22;5557;51.670;7.788;2023-08-17T11:46:05;19.90;94.60
11009;DHT22;5557;51.670;7.788;2023-08-17T11:48:32;19.90;92.30
11009;DHT22;5557;51.670;7.788;2023-08-17T11:51:03;19.90;94.80
11009;DHT22;5557;51.670;7.788;2023-08-17T11:53:37;20.00;94.30
11009;DHT22;5557;51.670;7.788;2023-08-17T11:56:06;20.00;94.30
11009;DHT22;5557;51.670;7.788;2023-08-17T11:58:40;20.00;95.00
11009;DHT22;5557;51.670;7.788;2023-08-17T12:01:09;19.90;94.40
11009;DHT22;5557;51.670;7.788;2023-08-17T12:03:39;19.80;96.20
11009;DHT22;5557;51.670;7.788;2023-08-17T12:06:08;19.80;96.80
11009;DHT22;5557;51.670;7.788;2023-08-17T12:08:35;19.80;95.60
11009;DHT22;5557;51.670;7.788;2023-08-17T12:11:03;19.80;94.80
11009;DHT22;5557;51.670;7.788;2023-08-17T12:13:34;19.70;97.30
11009;DHT22;5557;51.670;7.788;2023-08-17T12:16:02;19.80;99.20
11009;DHT22;5557;51.670;7.788;2023-08-17T12:18:34;19.90;99.70
11009;DHT22;5557;51.670;7.788;2023-08-17T12:21:03;20.10;97.20
11009;DHT22;5557;51.670;7.788;2023-08-17T12:23:32;20.20;95.40
11009;DHT22;5557;51.670;7.788;2023-08-17T12:26:00;20.30;92.30
11009;DHT22;5557;51.670;7.788;2023-08-17T12:28:27;20.30;91.10
11009;DHT22;5557;51.670;7.788;2023-08-17T12:31:01;20.40;89.20
11009;DHT22;5557;51.670;7.788;2023-08-17T12:33:29;20.40;83.40
11009;DHT22;5557;51.670;7.788;2023-08-17T12:35:56;20.40;84.50
11009;DHT22;5557;51.670;7.788;2023-08-17T12:38:24;20.50;84.20
11009;DHT22;5557;51.670;7.788;2023-08-17T12:40:52;20.50;79.80
11009;DHT22;5557;51.670;7.788;2023-08-17T12:43:19;20.50;82.00
11009;DHT22;5557;51.670;7.788;2023-08-17T12:45:46;20.50;85.70
11009;DHT22;5557;51.670;7.788;2023-08-17T12:48:13;20.50;80.20
11009;DHT22;5557;51.670;7.788;2023-08-17T12:50:40;20.60;80.80
11009;DHT22;5557;51.670;7.788;2023-08-17T12:53:10;20.80;79.90
11009;DHT22;5557;51.670;7.788;2023-08-17T12:55:37;20.90;74.30
11009;DHT22;5557;51.670;7.788;2023-08-17T12:58:08;21.00;70.60
11009;DHT22;5557;51.670;7.788;2023-08-17T13:00:36;21.10;66.60
11009;DHT22;5557;51.670;7.788;2023-08-17T13:03:03;21.10;69.40
11009;DHT22;5557;51.670;7.788;2023-08-17T13:05:30;21.10;70.80
11009;DHT22;5557;51.670;7.788;2023-08-17T13:07:57;21.10;71.10
11009;DHT22;5557;51.670;7.788;2023-08-17T13:10:25;21.10;75.70
11009;DHT22;5557;51.670;7.788;2023-08-17T13:12:52;21.10;78.50
11009;DHT22;5557;51.670;7.788;2023-08-17T13:15:22;21.20;69.10
11009;DHT22;5557;51.670;7.788;2023-08-17T13:17:49;21.20;68.90
11009;DHT22;5557;51.670;7.788;2023-08-17T13:20:16;21.20;67.80
11009;DHT22;5557;51.670;7.788;2023-08-17T13:22:44;21.20;68.20
11009;DHT22;5557;51.670;7.788;2023-08-17T13:25:11;21.20;68.80
11009;DHT22;5557;51.670;7.788;2023-08-17T13:27:38;21.20;69.10
11009;DHT22;5557;51.670;7.788;2023-08-17T13:30:06;21.30;69.00
11009;DHT22;5557;51.670;7.788;2023-08-17T13:32:33;21.30;65.60
11009;DHT22;5557;51.670;7.788;2023-08-17T13:35:02;21.20;64.70
11009;DHT22;5557;51.670;7.788;2023-08-17T13:37:29;21.20;69.60
11009;DHT22;5557;51.670;7.788;2023-08-17T13:39:56;21.10;71.40
11009;DHT22;5557;51.670;7.788;2023-08-17T13:42:23;20.90;74.30
11009;DHT22;5557;51.670;7.788;2023-08-17T13:44:50;20.90;75.50
11009;DHT22;5557;51.670;7.788;2023-08-17T13:47:17;20.80;79.40
11009;DHT22;5557;51.670;7.788;2023-08-17T13:49:44;20.80;83.00
11009;DHT22;5557;51.670;7.788;2023-08-17T13:52:12;20.70;85.40
11009;DHT22;5557;51.670;7.788;2023-08-17T13:54:39;20.70;86.10
11009;DHT22;5557;51.670;7.788;2023-08-17T13:57:06;20.70;85.50
11009;DHT22;5557;51.670;7.788;2023-08-17T13:59:33;20.80;83.00
11009;DHT22;5557;51.670;7.788;2023-08-17T14:02:00;20.80;85.40
11009;DHT22;5557;51.670;7.788;2023-08-17T14:04:27;20.90;85.30
11009;DHT22;5557;51.670;7.788;2023-08-17T14:06:54;21.00;86.70
11009;DHT22;5557;51.670;7.788;2023-08-17T14:09:24;21.10;83.70
11009;DHT22;5557;51.670;7.788;2023-08-17T14:11:53;21.10;84.00
11009;DHT22;5557;51.670;7.788;2023-08-17T14:14:23;21.00;84.90
11009;DHT22;5557;51.670;7.788;2023-08-17T14:16:50;20.90;81.60
11009;DHT22;5557;51.670;7.788;2023-08-17T14:19:17;20.80;84.10
11009;DHT22;5557;51.670;7.788;2023-08-17T14:21:45;20.80;88.20
11009;DHT22;5557;51.670;7.788;2023-08-17T14:24:12;20.90;90.10
11009;DHT22;5557;51.670;7.788;2023-08-17T14:26:39;21.00;90.00
11009;DHT22;5557;51.670;7.788;2023-08-17T14:29:07;21.00;88.20
11009;DHT22;5557;51.670;7.788;2023-08-17T14:31:34;21.00;88.20
11009;DHT22;5557;51.670;7.788;2023-08-17T14:34:01;20.70;90.20
11009;DHT22;5557;51.670;7.788;2023-08-17T14:36:32;20.50;95.70
11009;DHT22;5557;51.670;7.788;2023-08-17T14:38:59;20.40;97.00
11009;DHT22;5557;51.670;7.788;2023-08-17T14:41:26;20.30;98.00
11009;DHT22;5557;51.670;7.788;2023-08-17T14:44:01;20.20;99.90
11009;DHT22;5557;51.670;7.788;2023-08-17T14:46:29;20.20;99.90
11009;DHT22;5557;51.670;7.788;2023-08-17T14:48:57;20.10;99.90
11009;DHT22;5557;51.670;7.788;2023-08-17T14:51:25;20.00;99.90
11009;DHT22;5557;51.670;7.788;2023-08-17T14:53:55;19.90;99.90
11009;DHT22;5557;51.670;7.788;2023-08-17T14:56:23;19.80;99.90
11009;DHT22;5557;51.670;7.788;2023-08-17T14:58:50;19.80;99.90
11009;DHT22;5557;51.670;7.788;2023-08-17T15:01:17;19.80;99.90
11009;DHT22;5557;51.670;7.788;2023-08-17T15:03:45;19.90;99.90
11009;DHT22;5557;51.670;7.788;2023-08-17T15:06:13;19.90;99.90
11009;DHT22;5557;51.670;7.788;2023-08-17T15:09:02;19.90;99.90
11009;DHT22;5557;51.670;7.788;2023-08-17T15:11:30;19.80;99.90
11009;DHT22;5557;51.670;7.788;2023-08-17T15:13:57;19.80;99.90
11009;DHT22;5557;51.670;7.788;2023-08-17T15:16:24;19.80;99.90
11009;DHT22;5557;51.670;7.788;2023-08-17T15:18:54;19.80;99.90
11009;DHT22;5557;51.670;7.788;2023-08-17T15:21:21;19.70;99.90
11009;DHT22;5557;51.670;7.788;2023-08-17T15:23:48;19.70;99.90
11009;DHT22;5557;51.670;7.788;2023-08-17T15:26:16;19.70;99.90
11009;DHT22;5557;51.670;7.788;2023-08-17T15:28:44;19.70;99.90
11009;DHT22;5557;51.670;7.788;2023-08-17T15:31:11;19.70;99.90
11009;DHT22;5557;51.670;7.788;2023-08-17T15:33:43;19.80;99.90
11009;DHT22;5557;51.670;7.788;2023-08-17T15:36:10;19.80;99.90
11009;DHT22;5557;51.670;7.788;2023-08-17T15:38:37;19.80;99.90
11009;DHT22;5557;51.670;7.788;2023-08-17T15:41:05;19.80;99.90
11009;DHT22;5557;51.670;7.788;2023-08-17T15:43:32;19.90;99.90
11009;DHT22;5557;51.670;7.788;2023-08-17T15:45:59;19.90;99.90
11009;DHT22;5557;51.670;7.788;2023-08-17T15:48:26;20.00;99.90
11009;DHT22;5557;51.670;7.788;2023-08-17T15:50:53;20.00;99.90
11009;DHT22;5557;51.670;7.788;2023-08-17T15:53:20;19.90;99.90
11009;DHT22;5557;51.670;7.788;2023-08-17T15:55:47;19.90;99.90
11009;DHT22;5557;51.670;7.788;2023-08-17T15:58:14;20.00;99.90
11009;DHT22;5557;51.670;7.788;2023-08-17T16:00:41;20.00;99.90
11009;DHT22;5557;51.670;7.788;2023-08-17T16:03:08;20.10;99.90
11009;DHT22;5557;51.670;7.788;2023-08-17T16:05:39;20.20;99.90